createdAt,value
2019-03-28T00:00:03.200Z,7.8
2019-03-28T00:00:15.255Z,8.5
2019-03-28T00:00:27.351Z,9.3
2019-03-28T00:00:39.430Z,9.3
2019-03-28T00:00:51.499Z,8.5
2019-03-28T00:01:03.561Z,8.4
2019-03-28T00:01:15.644Z,8.5
2019-03-28T00:01:27.746Z,8.2
2019-03-28T00:01:39.849Z,8
2019-03-28T00:01:51.933Z,8.2
2019-03-28T00:02:04.004Z,8.8
2019-03-28T00:02:16.171Z,9
2019-03-28T00:02:28.212Z,8.9
2019-03-28T00:02:40.302Z,8.7
2019-03-28T00:02:52.350Z,9.3
2019-03-28T00:03:04.390Z,9.4
2019-03-28T00:03:16.478Z,9.9
2019-03-28T00:03:28.640Z,9.2
2019-03-28T00:03:40.694Z,8.7
2019-03-28T00:03:53.777Z,9.3
2019-03-28T00:04:05.874Z,9.3
2019-03-28T00:04:17.943Z,9.1
2019-03-28T00:04:30.039Z,8.4
2019-03-28T00:04:43.148Z,8.5
2019-03-28T00:04:55.251Z,8.6
2019-03-28T00:05:07.859Z,8.9
2019-03-28T00:05:20.393Z,9.6
2019-03-28T00:05:33.479Z,9.8
2019-03-28T00:05:45.564Z,9.4
2019-03-28T00:05:58.655Z,9
2019-03-28T00:06:10.764Z,8.8
2019-03-28T00:06:23.169Z,8.9
2019-03-28T00:06:34.996Z,8.9
2019-03-28T00:06:48.111Z,9
2019-03-28T00:07:00.158Z,8.5
2019-03-28T00:07:12.257Z,8.8
2019-03-28T00:07:26.310Z,9.2
2019-03-28T00:07:38.407Z,9.4
2019-03-28T00:07:50.488Z,9.6
2019-03-28T00:08:03.216Z,8.8
2019-03-28T00:08:16.654Z,9.2
2019-03-28T00:08:28.755Z,9.7
2019-03-28T00:08:41.816Z,9.7
2019-03-28T00:08:54.124Z,9.2
2019-03-28T00:09:07.784Z,9
2019-03-28T00:09:20.045Z,8.6
2019-03-28T00:09:32.123Z,8.7
2019-03-28T00:09:45.307Z,8.7
2019-03-28T00:09:57.261Z,8.5
2019-03-28T00:10:09.969Z,8.8
2019-03-28T00:10:21.408Z,8.3
2019-03-28T00:10:33.488Z,8.5
2019-03-28T00:10:45.573Z,8.9
2019-03-28T00:10:57.630Z,8.7
2019-03-28T00:11:09.708Z,8.5
2019-03-28T00:11:21.776Z,8.8
2019-03-28T00:11:33.938Z,8.5
2019-03-28T00:11:46.079Z,8.7
2019-03-28T00:11:58.170Z,8.9
2019-03-28T00:12:10.242Z,9.1
2019-03-28T00:12:22.292Z,8.7
2019-03-28T00:12:34.340Z,9
2019-03-28T00:12:46.394Z,8.9
2019-03-28T00:12:58.512Z,8.7
2019-03-28T00:13:10.578Z,8.6
2019-03-28T00:13:22.653Z,8.5
2019-03-28T00:13:34.716Z,8.6
2019-03-28T00:13:46.796Z,8.4
2019-03-28T00:14:00.847Z,8.4
2019-03-28T00:14:12.903Z,9.2
2019-03-28T00:14:24.986Z,9.3
2019-03-28T00:14:37.069Z,9.1
2019-03-28T00:14:49.191Z,9.9
2019-03-28T00:15:01.284Z,10.7
2019-03-28T00:15:13.370Z,10.5
2019-03-28T00:15:25.506Z,10.1
2019-03-28T00:15:38.607Z,9.2
2019-03-28T00:15:50.689Z,9.3
2019-03-28T00:16:02.782Z,9.6
2019-03-28T00:16:14.885Z,10.1
2019-03-28T00:16:26.973Z,10
2019-03-28T00:16:39.036Z,9.6
2019-03-28T00:16:51.142Z,9.2
2019-03-28T00:17:03.218Z,9.6
2019-03-28T00:17:15.307Z,10.5
2019-03-28T00:17:29.334Z,9.8
2019-03-28T00:17:41.374Z,10.5
2019-03-28T00:17:53.456Z,9
2019-03-28T00:18:05.504Z,8.7
2019-03-28T00:18:17.566Z,9.8
2019-03-28T00:18:29.680Z,10
2019-03-28T00:18:41.730Z,9
2019-03-28T00:18:53.788Z,8
2019-03-28T00:19:06.890Z,8.5
2019-03-28T00:19:18.959Z,8.9
2019-03-28T00:19:31.042Z,9
2019-03-28T00:19:43.105Z,9.1
2019-03-28T00:19:55.147Z,9.4
2019-03-28T00:20:08.217Z,9
2019-03-28T00:20:21.290Z,9.1
2019-03-28T00:20:33.380Z,9.2
2019-03-28T00:20:45.439Z,9.2
2019-03-28T00:20:57.507Z,9.5
2019-03-28T00:21:09.570Z,9.4
2019-03-28T00:21:21.625Z,9.3
2019-03-28T00:21:33.778Z,9.2
2019-03-28T00:21:45.878Z,9.2
2019-03-28T00:21:57.978Z,9.4
2019-03-28T00:22:11.999Z,8.8
2019-03-28T00:22:24.055Z,8.9
2019-03-28T00:22:36.104Z,9.4
2019-03-28T00:22:48.203Z,9.6
2019-03-28T00:23:00.268Z,9.3
2019-03-28T00:23:13.357Z,8.7
2019-03-28T00:23:25.459Z,8.7
2019-03-28T00:23:37.514Z,8.6
2019-03-28T00:23:49.629Z,9.3
2019-03-28T00:24:01.650Z,9.6
2019-03-28T00:24:15.053Z,9.3
2019-03-28T00:24:27.158Z,9.5
2019-03-28T00:24:39.234Z,9.2
2019-03-28T00:24:51.337Z,9.5
2019-03-28T00:25:04.405Z,9.9
2019-03-28T00:25:16.482Z,9.6
2019-03-28T00:25:28.569Z,9
2019-03-28T00:25:41.663Z,8.6
2019-03-28T00:25:54.746Z,8.9
2019-03-28T00:26:07.823Z,9.7
2019-03-28T00:26:29.787Z,9.6
2019-03-28T00:26:38.892Z,9.2
2019-03-28T00:26:50.980Z,8.9
2019-03-28T00:27:04.037Z,8.9
2019-03-28T00:27:16.119Z,8.7
2019-03-28T00:27:28.187Z,8.5
2019-03-28T00:27:40.219Z,8.7
2019-03-28T00:27:52.329Z,9.3
2019-03-28T00:28:04.407Z,9
2019-03-28T00:28:16.472Z,9.3
2019-03-28T00:28:28.565Z,9.5
2019-03-28T00:28:40.613Z,9.4
2019-03-28T00:28:53.672Z,9.1
2019-03-28T00:29:06.744Z,9.5
2019-03-28T00:29:18.856Z,9.5
2019-03-28T00:29:31.893Z,9.2
2019-03-28T00:29:43.978Z,10
2019-03-28T00:29:56.065Z,10.1
2019-03-28T00:30:09.139Z,9.1
2019-03-28T00:30:22.203Z,9.3
2019-03-28T00:30:34.301Z,8.8
2019-03-28T00:30:46.373Z,9.1
2019-03-28T00:30:58.429Z,9.5
2019-03-28T00:31:10.518Z,10
2019-03-28T00:31:22.591Z,10
2019-03-28T00:31:35.239Z,9.3
2019-03-28T00:31:48.734Z,8.6
2019-03-28T00:32:00.788Z,8.5
2019-03-28T00:32:12.854Z,8.5
2019-03-28T00:32:24.957Z,9.4
2019-03-28T00:32:37.063Z,9.6
2019-03-28T00:32:49.162Z,9
2019-03-28T00:33:03.237Z,9
2019-03-28T00:33:15.296Z,8.4
2019-03-28T00:33:28.389Z,9.1
2019-03-28T00:33:40.465Z,9.2
2019-03-28T00:33:52.537Z,10.1
2019-03-28T00:34:04.658Z,9.5
2019-03-28T00:34:16.759Z,9
2019-03-28T00:34:28.809Z,9.3
2019-03-28T00:34:40.897Z,9.4
2019-03-28T00:34:53.004Z,8.4
2019-03-28T00:35:05.074Z,8.2
2019-03-28T00:35:17.165Z,8.9
2019-03-28T00:35:29.257Z,8.9
2019-03-28T00:35:41.322Z,9
2019-03-28T00:35:53.408Z,9.7
2019-03-28T00:36:06.498Z,10.5
2019-03-28T00:36:18.566Z,10.7
2019-03-28T00:36:30.609Z,9.9
2019-03-28T00:36:42.688Z,8.8
2019-03-28T00:36:54.739Z,9.1
2019-03-28T00:37:09.791Z,8.9
2019-03-28T00:37:21.853Z,8.6
2019-03-28T00:37:33.902Z,8.7
2019-03-28T00:37:45.956Z,9.6
2019-03-28T00:37:58.036Z,9.5
2019-03-28T00:38:10.109Z,8.9
2019-03-28T00:38:22.211Z,8.9
2019-03-28T00:38:34.312Z,9.3
2019-03-28T00:38:47.421Z,9.8
2019-03-28T00:38:59.522Z,9.9
2019-03-28T00:39:11.617Z,9.2
2019-03-28T00:39:23.752Z,9
2019-03-28T00:39:35.834Z,8.7
2019-03-28T00:39:47.879Z,8.7
2019-03-28T00:39:59.946Z,8.9
2019-03-28T00:40:12.021Z,9.8
2019-03-28T00:40:25.116Z,9.9
2019-03-28T00:40:37.164Z,8.8
2019-03-28T00:40:50.220Z,8.7
2019-03-28T00:41:02.309Z,9.2
2019-03-28T00:41:14.425Z,9
2019-03-28T00:41:27.505Z,9.2
2019-03-28T00:41:39.555Z,8.9
2019-03-28T00:41:51.605Z,8.9
2019-03-28T00:42:03.642Z,9.1
2019-03-28T00:42:15.769Z,9.1
2019-03-28T00:42:27.889Z,8.7
2019-03-28T00:42:40.769Z,9.6
2019-03-28T00:42:52.855Z,9.3
2019-03-28T00:43:04.935Z,9.3
2019-03-28T00:43:16.996Z,9.5
2019-03-28T00:43:29.113Z,9.2
2019-03-28T00:43:41.197Z,9.5
2019-03-28T00:43:54.310Z,9.4
2019-03-28T00:44:06.375Z,8.9
2019-03-28T00:44:18.436Z,8.5
2019-03-28T00:44:30.498Z,8.1
2019-03-28T00:44:42.608Z,8.5
2019-03-28T00:44:54.684Z,9.4
2019-03-28T00:45:06.776Z,10
2019-03-28T00:45:18.845Z,9.1
2019-03-28T00:45:31.235Z,8.5
2019-03-28T00:45:44.615Z,8.3
2019-03-28T00:45:56.251Z,8.3
2019-03-28T00:46:08.132Z,8.6
2019-03-28T00:46:21.371Z,9.1
2019-03-28T00:46:33.297Z,9.1
2019-03-28T00:46:46.155Z,8.8
2019-03-28T00:46:57.429Z,8.6
2019-03-28T00:47:09.502Z,8.7
2019-03-28T00:47:21.603Z,9.5
2019-03-28T00:47:36.154Z,9.6
2019-03-28T00:47:47.729Z,9.3
2019-03-28T00:48:01.223Z,9.4
2019-03-28T00:48:12.854Z,9.4
2019-03-28T00:48:25.099Z,9.2
2019-03-28T00:48:37.201Z,9.6
2019-03-28T00:48:49.283Z,10
2019-03-28T00:49:01.373Z,9.6
2019-03-28T00:49:13.490Z,9.4
2019-03-28T00:49:25.609Z,9
2019-03-28T00:49:39.668Z,8.9
2019-03-28T00:49:52.761Z,8.9
2019-03-28T00:50:04.827Z,8.8
2019-03-28T00:50:16.891Z,8.8
2019-03-28T00:50:32.897Z,8.8
2019-03-28T00:50:44.049Z,9.5
2019-03-28T00:50:56.108Z,9.6
2019-03-28T00:51:08.236Z,8.8
2019-03-28T00:51:20.330Z,8.8
2019-03-28T00:51:32.422Z,8.7
2019-03-28T00:51:47.464Z,9.3
2019-03-28T00:51:59.544Z,9.2
2019-03-28T00:52:11.611Z,9.3
2019-03-28T00:52:24.666Z,8.6
2019-03-28T00:52:36.770Z,8.3
2019-03-28T00:52:48.925Z,8.3
2019-03-28T00:53:01.009Z,9
2019-03-28T00:53:13.074Z,9.5
2019-03-28T00:53:25.207Z,8.7
2019-03-28T00:53:37.289Z,8.5
2019-03-28T00:53:49.363Z,8.6
2019-03-28T00:54:01.440Z,9
2019-03-28T00:54:13.552Z,9
2019-03-28T00:54:25.617Z,8.2
2019-03-28T00:54:37.671Z,8.2
2019-03-28T00:54:49.741Z,8.6
2019-03-28T00:55:01.789Z,9.2
2019-03-28T00:55:14.878Z,9.3
2019-03-28T00:55:26.963Z,9
2019-03-28T00:55:39.043Z,8.7
2019-03-28T00:55:51.092Z,9.1
2019-03-28T00:56:03.230Z,8.8
2019-03-28T00:56:16.296Z,8.7
2019-03-28T00:56:28.400Z,8.8
2019-03-28T00:56:49.412Z,8.5
2019-03-28T00:57:01.496Z,8.4
2019-03-28T00:57:13.566Z,8.6
2019-03-28T00:57:25.708Z,8.6
2019-03-28T00:57:37.792Z,8.5
2019-03-28T00:57:49.839Z,9.2
2019-03-28T00:58:02.882Z,9.8
2019-03-28T00:58:15.960Z,9.3
2019-03-28T00:58:28.053Z,8.6
2019-03-28T00:58:40.110Z,8.6
2019-03-28T00:58:52.193Z,8.7
2019-03-28T00:59:04.280Z,8.6
2019-03-28T00:59:16.371Z,8.7
2019-03-28T00:59:28.434Z,8.3
2019-03-28T00:59:40.574Z,8.8
2019-03-28T00:59:52.641Z,9.2
2019-03-28T01:00:04.741Z,8.8
2019-03-28T01:00:16.809Z,8.6
2019-03-28T01:00:29.930Z,8.7
2019-03-28T01:00:42.075Z,8.9
2019-03-28T01:00:54.129Z,9.3
2019-03-28T01:01:06.242Z,9.2
2019-03-28T01:01:18.322Z,8.3
2019-03-28T01:01:31.135Z,8.2
2019-03-28T01:01:42.649Z,7.8
2019-03-28T01:01:54.817Z,8.1
2019-03-28T01:02:06.805Z,8.3
2019-03-28T01:02:18.894Z,9.2
2019-03-28T01:02:30.943Z,9.2
2019-03-28T01:02:42.981Z,8.7
2019-03-28T01:02:55.082Z,9.5
2019-03-28T01:03:07.161Z,9.2
2019-03-28T01:03:19.286Z,9.3
2019-03-28T01:03:31.394Z,8.7
2019-03-28T01:03:43.489Z,9
2019-03-28T01:03:55.554Z,8.5
2019-03-28T01:04:07.654Z,8.7
2019-03-28T01:04:19.815Z,9.6
2019-03-28T01:04:31.881Z,10.4
2019-03-28T01:04:44.915Z,9
2019-03-28T01:04:57.026Z,9.2
2019-03-28T01:05:09.195Z,8.7
2019-03-28T01:05:21.329Z,8.9
2019-03-28T01:05:33.431Z,8.5
2019-03-28T01:05:45.518Z,8.2
2019-03-28T01:05:57.635Z,8.6
2019-03-28T01:06:09.718Z,9.2
2019-03-28T01:06:21.801Z,8.8
2019-03-28T01:06:33.865Z,8.8
2019-03-28T01:06:45.913Z,9.3
2019-03-28T01:06:58.093Z,9.1
2019-03-28T01:07:10.127Z,9.1
2019-03-28T01:07:22.241Z,9.2
2019-03-28T01:07:34.358Z,9.6
2019-03-28T01:07:47.197Z,9.5
2019-03-28T01:07:58.498Z,9.7
2019-03-28T01:08:10.583Z,8.8
2019-03-28T01:08:22.669Z,9
2019-03-28T01:08:34.786Z,9.1
2019-03-28T01:08:46.851Z,8.7
2019-03-28T01:08:58.912Z,8.4
2019-03-28T01:09:13.018Z,7.7
2019-03-28T01:09:25.097Z,7.9
2019-03-28T01:09:37.142Z,8.8
2019-03-28T01:09:49.214Z,8.3
2019-03-28T01:10:01.259Z,8.6
2019-03-28T01:10:13.356Z,8.2
2019-03-28T01:10:25.411Z,8.1
2019-03-28T01:10:37.532Z,8.5
2019-03-28T01:10:49.607Z,8.6
2019-03-28T01:11:02.663Z,8.7
2019-03-28T01:11:14.814Z,8.2
2019-03-28T01:11:26.932Z,8.6
2019-03-28T01:11:39.021Z,9
2019-03-28T01:11:51.091Z,9.2
2019-03-28T01:12:04.194Z,8.7
2019-03-28T01:12:16.243Z,8.7
2019-03-28T01:12:28.328Z,9.3
2019-03-28T01:12:40.442Z,8.9
2019-03-28T01:12:53.088Z,8.5
2019-03-28T01:13:04.672Z,9.1
2019-03-28T01:13:18.131Z,9
2019-03-28T01:13:29.874Z,8.7
2019-03-28T01:13:41.967Z,9
2019-03-28T01:13:54.045Z,9.2
2019-03-28T01:14:06.089Z,9.1
2019-03-28T01:14:18.230Z,9
2019-03-28T01:14:30.324Z,9.2
2019-03-28T01:14:42.400Z,9.4
2019-03-28T01:14:54.478Z,8.7
2019-03-28T01:15:06.545Z,9.3
2019-03-28T01:15:18.595Z,9
2019-03-28T01:15:30.701Z,9.1
2019-03-28T01:15:43.806Z,8.9
2019-03-28T01:15:55.895Z,8.7
2019-03-28T01:16:08.005Z,9.2
2019-03-28T01:16:20.097Z,9.1
2019-03-28T01:16:33.173Z,9.6
2019-03-28T01:16:45.227Z,9.4
2019-03-28T01:16:57.354Z,9.1
2019-03-28T01:17:09.435Z,9.5
2019-03-28T01:17:21.574Z,10
2019-03-28T01:17:33.674Z,9.9
2019-03-28T01:17:45.795Z,9
2019-03-28T01:17:57.898Z,8.8
2019-03-28T01:18:09.964Z,8.7
2019-03-28T01:18:22.007Z,8.2
2019-03-28T01:18:34.103Z,8.2
2019-03-28T01:18:46.206Z,8.8
2019-03-28T01:18:58.262Z,9.1
2019-03-28T01:19:11.327Z,9.7
2019-03-28T01:19:24.453Z,9.7
2019-03-28T01:19:36.540Z,9.1
2019-03-28T01:19:48.659Z,8.2
2019-03-28T01:20:00.736Z,8.6
2019-03-28T01:20:12.818Z,8.8
2019-03-28T01:20:24.887Z,8.7
2019-03-28T01:20:36.986Z,8.5
2019-03-28T01:20:49.066Z,9.2
2019-03-28T01:21:01.138Z,9.7
2019-03-28T01:21:13.288Z,9.3
2019-03-28T01:21:25.386Z,9.2
2019-03-28T01:21:37.478Z,8.9
2019-03-28T01:21:49.557Z,8.6
2019-03-28T01:22:01.683Z,9.5
2019-03-28T01:22:13.743Z,9.8
2019-03-28T01:22:25.858Z,9.8
2019-03-28T01:22:37.924Z,9
2019-03-28T01:22:50.028Z,9.1
2019-03-28T01:23:02.095Z,8.7
2019-03-28T01:23:14.232Z,9.6
2019-03-28T01:23:26.305Z,9
2019-03-28T01:23:38.388Z,9.3
2019-03-28T01:23:50.482Z,9.7
2019-03-28T01:24:02.582Z,10.2
2019-03-28T01:24:15.686Z,9.5
2019-03-28T01:24:27.788Z,8.8
2019-03-28T01:24:39.856Z,9
2019-03-28T01:24:51.904Z,8.9
2019-03-28T01:25:05.975Z,9.3
2019-03-28T01:25:18.048Z,10.1
2019-03-28T01:25:30.107Z,9.8
2019-03-28T01:25:42.199Z,9
2019-03-28T01:25:54.289Z,9.1
2019-03-28T01:26:06.362Z,9.8
2019-03-28T01:26:19.418Z,9.2
2019-03-28T01:26:31.477Z,9.9
2019-03-28T01:26:51.818Z,9.5
2019-03-28T01:27:03.608Z,9.6
2019-03-28T01:27:15.671Z,9.2
2019-03-28T01:27:27.743Z,9.6
2019-03-28T01:27:39.837Z,9.8
2019-03-28T01:27:51.935Z,9.1
2019-03-28T01:28:04.993Z,9.6
2019-03-28T01:28:17.052Z,9.6
2019-03-28T01:28:29.186Z,9
2019-03-28T01:28:41.330Z,9.6
2019-03-28T01:28:53.312Z,9.9
2019-03-28T01:29:06.409Z,9.8
2019-03-28T01:29:18.469Z,10
2019-03-28T01:29:32.212Z,10.4
2019-03-28T01:29:43.692Z,10
2019-03-28T01:29:55.776Z,10.7
2019-03-28T01:30:07.865Z,10.4
2019-03-28T01:30:19.978Z,10.3
2019-03-28T01:30:32.062Z,9.2
2019-03-28T01:30:45.266Z,8.6
2019-03-28T01:30:57.355Z,8.7
2019-03-28T01:31:10.224Z,9.5
2019-03-28T01:31:21.548Z,9.2
2019-03-28T01:31:33.627Z,9.3
2019-03-28T01:31:45.701Z,9.7
2019-03-28T01:31:57.797Z,9.4
2019-03-28T01:32:09.902Z,9.2
2019-03-28T01:32:22.037Z,9.5
2019-03-28T01:32:34.120Z,9.5
2019-03-28T01:32:46.222Z,9.3
2019-03-28T01:32:58.313Z,9.2
2019-03-28T01:33:10.400Z,9.5
2019-03-28T01:33:22.480Z,8.9
2019-03-28T01:33:34.570Z,8.9
2019-03-28T01:33:46.645Z,9.5
2019-03-28T01:33:59.700Z,10
2019-03-28T01:34:11.796Z,9.3
2019-03-28T01:34:23.883Z,9.8
2019-03-28T01:34:35.953Z,9.8
2019-03-28T01:34:48.008Z,10
2019-03-28T01:35:00.107Z,9.8
2019-03-28T01:35:12.194Z,9.2
2019-03-28T01:35:25.279Z,9.2
2019-03-28T01:35:38.325Z,10.1
2019-03-28T01:35:50.411Z,10.2
2019-03-28T01:36:03.466Z,9.9
2019-03-28T01:36:15.532Z,8.9
2019-03-28T01:36:27.626Z,9
2019-03-28T01:36:39.719Z,8.7
2019-03-28T01:36:51.798Z,9.9
2019-03-28T01:37:04.196Z,9.8
2019-03-28T01:37:16.997Z,10.1
2019-03-28T01:37:29.304Z,9.6
2019-03-28T01:37:41.188Z,10.1
2019-03-28T01:37:53.322Z,10.2
2019-03-28T01:38:05.405Z,9.8
2019-03-28T01:38:17.489Z,9.4
2019-03-28T01:38:29.620Z,9.7
2019-03-28T01:38:41.736Z,9.4
2019-03-28T01:38:53.802Z,9.9
2019-03-28T01:39:05.910Z,9.8
2019-03-28T01:39:18.015Z,9.8
2019-03-28T01:39:31.156Z,10.6
2019-03-28T01:39:43.203Z,10
2019-03-28T01:39:56.271Z,9.6
2019-03-28T01:40:09.389Z,10
2019-03-28T01:40:21.441Z,10.2
2019-03-28T01:40:33.507Z,9.6
2019-03-28T01:40:45.558Z,9.8
2019-03-28T01:40:57.645Z,10.4
2019-03-28T01:41:09.735Z,10
2019-03-28T01:41:21.813Z,10.1
2019-03-28T01:41:34.909Z,9.8
2019-03-28T01:41:46.982Z,9.7
2019-03-28T01:42:00.071Z,10
2019-03-28T01:42:12.138Z,9.9
2019-03-28T01:42:24.232Z,10.1
2019-03-28T01:42:36.308Z,10.3
2019-03-28T01:42:49.239Z,9.7
2019-03-28T01:43:02.286Z,10.6
2019-03-28T01:43:15.330Z,10.3
2019-03-28T01:43:27.491Z,9.5
2019-03-28T01:43:39.490Z,10.1
2019-03-28T01:43:52.263Z,9.9
2019-03-28T01:44:03.620Z,9.5
2019-03-28T01:44:15.690Z,9.6
2019-03-28T01:44:29.721Z,10.2
2019-03-28T01:44:41.804Z,10.5
2019-03-28T01:44:53.872Z,9.6
2019-03-28T01:45:05.966Z,10.3
2019-03-28T01:45:19.021Z,10.3
2019-03-28T01:45:32.092Z,10.1
2019-03-28T01:45:45.167Z,10.4
2019-03-28T01:45:57.266Z,10.9
2019-03-28T01:46:09.358Z,10.8
2019-03-28T01:46:21.435Z,11.2
2019-03-28T01:46:33.515Z,10.8
2019-03-28T01:46:46.617Z,10.2
2019-03-28T01:46:59.660Z,9.9
2019-03-28T01:47:12.708Z,10.8
2019-03-28T01:47:24.791Z,10.9
2019-03-28T01:47:37.882Z,11.2
2019-03-28T01:47:49.921Z,11.6
2019-03-28T01:48:02.044Z,11.2
2019-03-28T01:48:15.127Z,10
2019-03-28T01:48:28.262Z,10.3
2019-03-28T01:48:40.370Z,10.2
2019-03-28T01:48:52.441Z,10.7
2019-03-28T01:49:06.551Z,10.8
2019-03-28T01:49:18.672Z,10.5
2019-03-28T01:49:30.791Z,10.9
2019-03-28T01:49:42.858Z,10.6
2019-03-28T01:49:54.932Z,9.5
2019-03-28T01:50:06.979Z,9.3
2019-03-28T01:50:19.090Z,9.9
2019-03-28T01:50:31.154Z,10.1
2019-03-28T01:50:43.202Z,10.3
2019-03-28T01:50:55.269Z,10.4
2019-03-28T01:51:07.350Z,11
2019-03-28T01:51:19.412Z,10.5
2019-03-28T01:51:32.487Z,10.3
2019-03-28T01:51:45.533Z,10.8
2019-03-28T01:51:57.598Z,10.3
2019-03-28T01:52:10.659Z,10.5
2019-03-28T01:52:22.728Z,9.6
2019-03-28T01:52:35.805Z,10.1
2019-03-28T01:52:47.851Z,10.8
2019-03-28T01:52:59.927Z,11.4
2019-03-28T01:53:12.332Z,11.3
2019-03-28T01:53:24.056Z,11.3
2019-03-28T01:53:36.167Z,10.9
2019-03-28T01:53:49.260Z,11.3
2019-03-28T01:54:01.347Z,11.3
2019-03-28T01:54:14.439Z,10.5
2019-03-28T01:54:26.489Z,10.4
2019-03-28T01:54:38.590Z,10.1
2019-03-28T01:54:51.641Z,11.3
2019-03-28T01:55:03.710Z,11.3
2019-03-28T01:55:15.787Z,10.8
2019-03-28T01:55:27.859Z,10.7
2019-03-28T01:55:39.981Z,10.8
2019-03-28T01:55:52.095Z,10.9
2019-03-28T01:56:04.164Z,10.1
2019-03-28T01:56:16.223Z,10.1
2019-03-28T01:56:30.283Z,9.9
2019-03-28T01:56:42.336Z,10
2019-03-28T01:56:55.459Z,10.6
2019-03-28T01:57:14.447Z,10.9
2019-03-28T01:57:27.539Z,9.7
2019-03-28T01:57:39.626Z,10.4
2019-03-28T01:57:51.695Z,10.7
2019-03-28T01:58:05.200Z,10.8
2019-03-28T01:58:16.801Z,11.6
2019-03-28T01:58:28.872Z,11.3
2019-03-28T01:58:41.210Z,11.7
2019-03-28T01:58:53.271Z,12.3
2019-03-28T01:59:05.338Z,10.9
2019-03-28T01:59:18.403Z,10.6
2019-03-28T01:59:30.445Z,10.3
2019-03-28T01:59:42.516Z,11.4
2019-03-28T01:59:56.562Z,10.9
2019-03-28T02:00:08.641Z,11.2
2019-03-28T02:00:20.711Z,11.1
2019-03-28T02:00:33.749Z,11
2019-03-28T02:00:45.834Z,11.2
2019-03-28T02:00:57.887Z,11.9
2019-03-28T02:01:11.955Z,11.2
2019-03-28T02:01:25.020Z,10.6
2019-03-28T02:01:37.110Z,11.3
2019-03-28T02:01:50.163Z,12
2019-03-28T02:02:02.238Z,12.6
2019-03-28T02:02:15.266Z,12.4
2019-03-28T02:02:27.306Z,11.3
2019-03-28T02:02:39.362Z,10.6
2019-03-28T02:02:51.431Z,10
2019-03-28T02:03:04.515Z,9.9
2019-03-28T02:03:16.587Z,10.3
2019-03-28T02:03:28.644Z,10.9
2019-03-28T02:03:40.714Z,10.3
2019-03-28T02:03:52.817Z,10.3
2019-03-28T02:04:04.923Z,10.7
2019-03-28T02:04:16.990Z,11.4
2019-03-28T02:04:29.029Z,11
2019-03-28T02:04:41.098Z,10.4
2019-03-28T02:04:53.168Z,10.8
2019-03-28T02:05:05.283Z,11
2019-03-28T02:05:18.185Z,10.8
2019-03-28T02:05:29.574Z,10.8
2019-03-28T02:05:41.661Z,11.1
2019-03-28T02:05:53.751Z,10.5
2019-03-28T02:06:05.815Z,10.8
2019-03-28T02:06:17.878Z,11.3
2019-03-28T02:06:29.949Z,11.4
2019-03-28T02:06:42.016Z,11.1
2019-03-28T02:06:54.083Z,11
2019-03-28T02:07:07.132Z,11.1
2019-03-28T02:07:19.202Z,11.1
2019-03-28T02:07:31.285Z,11.3
2019-03-28T02:07:43.329Z,11.1
2019-03-28T02:07:55.416Z,10.6
2019-03-28T02:08:08.507Z,10.9
2019-03-28T02:08:24.565Z,11.5
2019-03-28T02:08:35.631Z,11.9
2019-03-28T02:08:48.704Z,11.1
2019-03-28T02:09:00.773Z,10.7
2019-03-28T02:09:12.829Z,10.9
2019-03-28T02:09:24.927Z,10.3
2019-03-28T02:09:37.001Z,10.9
2019-03-28T02:09:49.079Z,11.4
2019-03-28T02:10:01.151Z,11.8
2019-03-28T02:10:14.206Z,10.7
2019-03-28T02:10:26.306Z,10.3
2019-03-28T02:10:38.419Z,10
2019-03-28T02:10:51.496Z,10.6
2019-03-28T02:11:03.568Z,10.5
2019-03-28T02:11:16.640Z,11.6
2019-03-28T02:11:28.724Z,11.9
2019-03-28T02:11:40.779Z,11.7
2019-03-28T02:11:52.868Z,11.4
2019-03-28T02:12:06.012Z,11.1
2019-03-28T02:12:18.095Z,11.2
2019-03-28T02:12:30.171Z,10.7
2019-03-28T02:12:42.232Z,11.5
2019-03-28T02:12:54.293Z,11.7
2019-03-28T02:13:06.373Z,11.8
2019-03-28T02:13:18.427Z,11.2
2019-03-28T02:13:30.526Z,10.4
2019-03-28T02:13:42.557Z,10
2019-03-28T02:13:54.630Z,11
2019-03-28T02:14:07.721Z,11.4
2019-03-28T02:14:19.791Z,11.3
2019-03-28T02:14:31.873Z,11.7
2019-03-28T02:14:43.961Z,11.5
2019-03-28T02:14:56.053Z,11.4
2019-03-28T02:15:08.138Z,10.7
2019-03-28T02:15:20.193Z,11.4
2019-03-28T02:15:32.294Z,12.2
2019-03-28T02:15:44.364Z,12.3
2019-03-28T02:15:56.430Z,10.8
2019-03-28T02:16:08.521Z,10.1
2019-03-28T02:16:21.405Z,10.5
2019-03-28T02:16:32.760Z,11.6
2019-03-28T02:16:44.839Z,11.9
2019-03-28T02:16:56.901Z,12.3
2019-03-28T02:17:09.952Z,12
2019-03-28T02:17:23.065Z,11.6
2019-03-28T02:17:35.141Z,11.5
2019-03-28T02:17:47.245Z,12
2019-03-28T02:18:00.299Z,12.4
2019-03-28T02:18:12.402Z,11.9
2019-03-28T02:18:24.450Z,11.4
2019-03-28T02:18:36.557Z,11.7
2019-03-28T02:18:48.636Z,11.8
2019-03-28T02:19:00.763Z,12
2019-03-28T02:19:13.870Z,11.8
2019-03-28T02:19:25.906Z,12.1
2019-03-28T02:19:38.992Z,11.3
2019-03-28T02:19:51.035Z,11.4
2019-03-28T02:20:03.141Z,11.5
2019-03-28T02:20:15.226Z,11.7
2019-03-28T02:20:28.291Z,11.4
2019-03-28T02:20:40.363Z,11.3
2019-03-28T02:20:52.479Z,11.3
2019-03-28T02:21:04.555Z,10.8
2019-03-28T02:21:17.605Z,10.8
2019-03-28T02:21:29.693Z,11.5
2019-03-28T02:21:41.764Z,11.3
2019-03-28T02:21:53.833Z,11.4
2019-03-28T02:22:06.907Z,11.9
2019-03-28T02:22:19.379Z,11.5
2019-03-28T02:22:31.006Z,11.7
2019-03-28T02:22:43.082Z,12.7
2019-03-28T02:22:55.146Z,13.5
2019-03-28T02:23:07.188Z,12.9
2019-03-28T02:23:19.256Z,12
2019-03-28T02:23:31.379Z,10.8
2019-03-28T02:23:43.489Z,11.2
2019-03-28T02:23:55.603Z,11.2
2019-03-28T02:24:07.656Z,11.2
2019-03-28T02:24:19.783Z,11.1
2019-03-28T02:24:31.826Z,11.8
2019-03-28T02:24:43.902Z,12.5
2019-03-28T02:24:55.939Z,13.6
2019-03-28T02:25:08.014Z,13.3
2019-03-28T02:25:20.087Z,12.9
2019-03-28T02:25:32.159Z,11.9
2019-03-28T02:25:44.238Z,11.5
2019-03-28T02:25:57.301Z,11.2
2019-03-28T02:26:09.376Z,11.1
2019-03-28T02:26:21.428Z,11.4
2019-03-28T02:26:34.182Z,11.1
2019-03-28T02:26:45.556Z,11.2
2019-03-28T02:26:57.659Z,11
2019-03-28T02:27:09.746Z,11.5
2019-03-28T02:27:28.775Z,12.4
2019-03-28T02:27:40.874Z,12.5
2019-03-28T02:27:53.951Z,13
2019-03-28T02:28:06.997Z,12.9
2019-03-28T02:28:19.094Z,13
2019-03-28T02:28:31.166Z,13.3
2019-03-28T02:28:43.257Z,12.4
2019-03-28T02:28:55.318Z,11.5
2019-03-28T02:29:07.479Z,10.7
2019-03-28T02:29:20.431Z,11.6
2019-03-28T02:29:33.145Z,11.8
2019-03-28T02:29:44.572Z,11.5
2019-03-28T02:29:56.627Z,11.2
2019-03-28T02:30:08.711Z,11.5
2019-03-28T02:30:20.772Z,11
2019-03-28T02:30:32.859Z,11.7
2019-03-28T02:30:44.925Z,13.6
2019-03-28T02:30:57.999Z,13.8
2019-03-28T02:31:10.077Z,12.9
2019-03-28T02:31:24.178Z,13.1
2019-03-28T02:31:36.269Z,12.5
2019-03-28T02:31:49.321Z,11.8
2019-03-28T02:32:01.430Z,11.6
2019-03-28T02:32:13.506Z,11.3
2019-03-28T02:32:25.584Z,11.5
2019-03-28T02:32:38.673Z,12.1
2019-03-28T02:32:50.739Z,12.1
2019-03-28T02:33:02.873Z,11.5
2019-03-28T02:33:14.956Z,11.6
2019-03-28T02:33:27.023Z,11.3
2019-03-28T02:33:39.133Z,11.4
2019-03-28T02:33:51.200Z,11.1
2019-03-28T02:34:03.273Z,11.2
2019-03-28T02:34:15.345Z,11.3
2019-03-28T02:34:27.403Z,11.3
2019-03-28T02:34:39.508Z,12.1
2019-03-28T02:34:53.565Z,12.3
2019-03-28T02:35:05.639Z,12.6
2019-03-28T02:35:17.722Z,13.2
2019-03-28T02:35:29.790Z,13.9
2019-03-28T02:35:41.872Z,12.8
2019-03-28T02:35:53.930Z,12.8
2019-03-28T02:36:06.035Z,13.2
2019-03-28T02:36:18.119Z,13.6
2019-03-28T02:36:30.212Z,13.2
2019-03-28T02:36:42.319Z,13.3
2019-03-28T02:36:54.396Z,13
2019-03-28T02:37:06.454Z,12.2
2019-03-28T02:37:18.531Z,12.7
2019-03-28T02:37:31.635Z,13
2019-03-28T02:37:43.737Z,11.9
2019-03-28T02:37:55.850Z,11.9
2019-03-28T02:38:07.947Z,11.4
2019-03-28T02:38:20.007Z,11.7
2019-03-28T02:38:32.393Z,11.5
2019-03-28T02:38:44.187Z,11.8
2019-03-28T02:38:56.256Z,12.2
2019-03-28T02:39:09.306Z,12.7
2019-03-28T02:39:21.372Z,13.5
2019-03-28T02:39:33.435Z,13.2
2019-03-28T02:39:45.556Z,12.9
2019-03-28T02:39:57.627Z,12.5
2019-03-28T02:40:09.690Z,11.6
2019-03-28T02:40:22.745Z,11.2
2019-03-28T02:40:34.813Z,12
2019-03-28T02:40:47.899Z,12.3
2019-03-28T02:40:59.984Z,12.3
2019-03-28T02:41:13.048Z,11.9
2019-03-28T02:41:25.127Z,12.3
2019-03-28T02:41:38.200Z,12.8
2019-03-28T02:41:51.260Z,13.8
2019-03-28T02:42:03.318Z,13.2
2019-03-28T02:42:15.425Z,12.5
2019-03-28T02:42:28.479Z,12.4
2019-03-28T02:42:40.811Z,13.5
2019-03-28T02:42:53.438Z,13.1
2019-03-28T02:43:04.965Z,12.3
2019-03-28T02:43:17.039Z,12.6
2019-03-28T02:43:29.117Z,12.5
2019-03-28T02:43:41.223Z,12.2
2019-03-28T02:43:54.277Z,12.2
2019-03-28T02:44:06.365Z,11.9
2019-03-28T02:44:19.460Z,11.8
2019-03-28T02:44:31.544Z,12.5
2019-03-28T02:44:43.658Z,12.4
2019-03-28T02:44:55.715Z,13.4
2019-03-28T02:45:08.802Z,13.5
2019-03-28T02:45:20.876Z,12.4
2019-03-28T02:45:33.984Z,12.7
2019-03-28T02:45:46.042Z,12.4
2019-03-28T02:45:59.149Z,12.5
2019-03-28T02:46:11.233Z,12.8
2019-03-28T02:46:23.325Z,12.6
2019-03-28T02:46:35.392Z,12.7
2019-03-28T02:46:47.481Z,12
2019-03-28T02:46:59.565Z,11.2
2019-03-28T02:47:11.640Z,11.2
2019-03-28T02:47:24.704Z,11.8
2019-03-28T02:47:37.814Z,12.7
2019-03-28T02:47:49.892Z,12.8
2019-03-28T02:48:02.075Z,12.2
2019-03-28T02:48:14.057Z,12.2
2019-03-28T02:48:26.140Z,11.9
2019-03-28T02:48:38.225Z,12.1